createdAt,value
2023-04-19T00:00:18.183Z,7.81
2023-04-19T00:04:20.897Z,7.85
2023-04-19T00:08:23.522Z,7.87
2023-04-19T00:12:25.674Z,7.85
2023-04-19T00:16:27.749Z,7.82
2023-04-19T00:20:29.837Z,7.79
2023-04-19T00:24:31.871Z,7.79
2023-04-19T00:28:34.568Z,7.76
2023-04-19T00:32:36.675Z,7.77
2023-04-19T00:36:38.714Z,7.79
2023-04-19T00:40:41.987Z,7.78
2023-04-19T00:44:44.150Z,7.71
2023-04-19T00:48:46.591Z,7.71
2023-04-19T00:52:48.814Z,7.67
2023-04-19T00:56:51.632Z,7.65
2023-04-19T01:00:53.670Z,7.58
2023-04-19T01:04:55.813Z,7.54
2023-04-19T01:08:58.449Z,7.50
2023-04-19T01:13:00.487Z,7.50
2023-04-19T01:17:02.609Z,7.47
2023-04-19T01:21:04.954Z,7.43
2023-04-19T01:25:07.780Z,7.38
2023-04-19T01:29:10.045Z,7.34
2023-04-19T01:33:13.269Z,7.22
2023-04-19T01:37:15.296Z,7.16
2023-04-19T01:41:17.370Z,7.11
2023-04-19T01:45:20.177Z,7.10
2023-04-19T01:49:25.965Z,7.15
2023-04-19T01:53:28.105Z,7.23
2023-04-19T01:57:31.204Z,7.25
2023-04-19T02:01:33.304Z,7.26
2023-04-19T02:05:35.355Z,7.29
2023-04-19T02:09:38.655Z,7.34
2023-04-19T02:13:41.185Z,7.36
2023-04-19T02:17:43.378Z,7.40
2023-04-19T02:21:45.511Z,7.39
2023-04-19T02:25:49.669Z,7.38
2023-04-19T02:29:51.692Z,7.39
2023-04-19T02:33:53.833Z,7.36
2023-04-19T02:37:55.901Z,7.34
2023-04-19T02:41:58.658Z,7.35
2023-04-19T02:46:02.293Z,7.32
2023-04-19T02:50:04.858Z,7.27
2023-04-19T02:54:10.035Z,7.26
2023-04-19T02:58:12.140Z,7.26
2023-04-19T03:02:19.809Z,7.27
2023-04-19T03:06:22.013Z,7.26
2023-04-19T03:10:25.222Z,7.24
2023-04-19T03:14:27.413Z,7.27
2023-04-19T03:18:30.090Z,7.24
2023-04-19T03:22:32.983Z,7.23
2023-04-19T03:26:35.428Z,7.23
2023-04-19T03:30:37.472Z,7.21
2023-04-19T03:34:39.550Z,7.23
2023-04-19T03:38:41.644Z,7.23
2023-04-19T03:42:47.861Z,7.26
2023-04-19T03:47:05.336Z,7.24
2023-04-19T03:51:15.843Z,7.23
2023-04-19T03:55:18.069Z,7.18
2023-04-19T03:59:20.251Z,7.20
2023-04-19T04:03:22.916Z,7.19
2023-04-19T04:07:25.805Z,7.16
2023-04-19T04:11:28.288Z,7.13
2023-04-19T04:15:30.496Z,7.13
2023-04-19T04:19:33.913Z,7.15
2023-04-19T04:23:37.785Z,7.14
2023-04-19T04:27:47.635Z,7.11
2023-04-19T04:31:54.319Z,7.07
2023-04-19T04:36:00.959Z,7.04
2023-04-19T04:40:08.953Z,7.06
2023-04-19T04:44:22.616Z,7.05
2023-04-19T04:48:25.379Z,7.05
2023-04-19T04:52:27.577Z,7.07
2023-04-19T04:56:37.368Z,7.10
2023-04-19T05:00:39.844Z,7.08
2023-04-19T05:04:44.325Z,7.09
2023-04-19T05:08:46.548Z,7.09
2023-04-19T05:12:56.956Z,7.10
2023-04-19T05:16:59.367Z,7.14
2023-04-19T05:21:01.622Z,7.17
2023-04-19T05:25:07.766Z,7.18
2023-04-19T05:29:09.850Z,7.19
2023-04-19T05:33:31.080Z,7.22
2023-04-19T05:37:33.651Z,7.25
2023-04-19T05:41:35.975Z,7.27
2023-04-19T05:45:38.024Z,7.30
2023-04-19T05:49:42.031Z,7.40
2023-04-19T05:53:55.192Z,7.44
2023-04-19T05:57:59.437Z,7.41
2023-04-19T06:02:03.119Z,7.33
2023-04-19T06:06:05.674Z,7.31
2023-04-19T06:10:08.597Z,7.35
2023-04-19T06:14:12.294Z,7.30
2023-04-19T06:18:19.467Z,7.31
2023-04-19T06:22:22.783Z,7.28
2023-04-19T06:26:24.793Z,7.25
2023-04-19T06:30:26.838Z,7.26
2023-04-19T06:34:28.860Z,7.34
2023-04-19T06:38:30.912Z,7.37
2023-04-19T06:42:32.936Z,7.41
2023-04-19T06:46:35.654Z,7.61
2023-04-19T06:50:37.789Z,7.66
2023-04-19T06:54:39.819Z,7.64
2023-04-19T06:58:41.902Z,7.67
2023-04-19T07:02:44.289Z,7.67
2023-04-19T07:06:49.833Z,7.61
2023-04-19T07:10:53.006Z,7.58
2023-04-19T07:14:57.196Z,7.70
2023-04-19T07:18:59.244Z,7.84
2023-04-19T07:23:01.387Z,7.90
2023-04-19T07:27:03.450Z,8.06
2023-04-19T07:31:05.623Z,8.22
2023-04-19T07:35:07.981Z,8.38
2023-04-19T07:39:10.018Z,8.49
2023-04-19T07:43:12.081Z,8.58
2023-04-19T07:47:14.151Z,8.59
2023-04-19T07:51:17.002Z,8.45
2023-04-19T07:55:19.492Z,8.50
2023-04-19T07:59:21.488Z,8.54
2023-04-19T08:03:23.725Z,8.52
2023-04-19T08:07:26.209Z,8.62
2023-04-19T08:11:28.465Z,8.62
2023-04-19T08:19:35.572Z,8.51
2023-04-19T08:23:47.260Z,8.58
2023-04-19T08:27:50.433Z,8.61
2023-04-19T08:31:52.556Z,8.80
2023-04-19T08:35:54.646Z,9.14
2023-04-19T08:39:56.731Z,9.17
2023-04-19T08:44:00.064Z,9.33
2023-04-19T08:48:04.205Z,9.57
2023-04-19T08:52:06.821Z,9.73
2023-04-19T08:56:15.133Z,9.75
2023-04-19T09:00:20.902Z,9.80
2023-04-19T09:04:36.549Z,9.75
2023-04-19T09:08:40.836Z,10.05
2023-04-19T09:12:43.790Z,10.13
2023-04-19T09:16:46.239Z,10.14
2023-04-19T09:20:48.392Z,10.06
2023-04-19T09:29:04.766Z,9.98
2023-04-19T09:33:08.161Z,9.95
2023-04-19T09:37:21.543Z,9.99
2023-04-19T09:41:38.757Z,10.10
2023-04-19T09:45:46.265Z,10.03
2023-04-19T09:49:49.518Z,10.12
2023-04-19T09:53:52.498Z,10.29
2023-04-19T09:57:55.149Z,10.34
2023-04-19T10:01:59.418Z,10.36
2023-04-19T10:06:10.582Z,10.36
2023-04-19T10:10:22.542Z,10.40
2023-04-19T10:14:33.213Z,10.44
2023-04-19T10:18:35.905Z,10.36
2023-04-19T10:22:38.846Z,10.26
2023-04-19T10:27:02.852Z,10.44
2023-04-19T10:31:05.554Z,10.41
2023-04-19T10:35:22.288Z,10.55
2023-04-19T10:39:41.299Z,10.65
2023-04-19T10:43:48.686Z,10.60
2023-04-19T10:47:51.959Z,10.67
2023-04-19T10:51:57.973Z,10.65
2023-04-19T10:55:59.988Z,10.50
2023-04-19T11:00:19.744Z,10.67
2023-04-19T11:04:27.203Z,10.87
2023-04-19T11:08:29.784Z,11.19
2023-04-19T11:12:31.794Z,11.29
2023-04-19T11:16:45.131Z,11.10
2023-04-19T11:20:52.971Z,11.19
2023-04-19T11:24:54.987Z,11.07
2023-04-19T11:28:57.085Z,10.80
2023-04-19T11:32:59.215Z,10.89
2023-04-19T11:37:01.664Z,11.21
2023-04-19T11:41:05.312Z,11.39
2023-04-19T11:45:18.563Z,11.20
2023-04-19T11:49:33.001Z,11.12
2023-04-19T11:53:35.071Z,11.31
2023-04-19T11:57:41.708Z,11.35
2023-04-19T12:01:43.796Z,11.27
2023-04-19T12:06:00.395Z,11.35
2023-04-19T12:10:12.274Z,11.51
2023-04-19T12:14:17.232Z,11.49
2023-04-19T12:18:19.585Z,11.26
2023-04-19T12:22:22.782Z,11.23
2023-04-19T12:26:29.140Z,11.26
2023-04-19T12:30:31.706Z,11.42
2023-04-19T12:34:33.767Z,11.64
2023-04-19T12:38:35.860Z,11.69
2023-04-19T12:42:37.931Z,11.56
2023-04-19T12:46:40.197Z,11.62
2023-04-19T12:50:42.267Z,11.85
2023-04-19T12:54:44.280Z,11.91
2023-04-19T12:58:46.458Z,11.88
2023-04-19T13:02:48.879Z,11.96
2023-04-19T13:06:51.095Z,12.04
2023-04-19T13:10:53.149Z,12.07
2023-04-19T13:14:55.299Z,11.88
2023-04-19T13:18:57.392Z,11.92
2023-04-19T13:22:59.370Z,11.89
2023-04-19T13:27:02.084Z,11.82
2023-04-19T13:31:05.366Z,11.87
2023-04-19T13:35:07.802Z,11.78
2023-04-19T13:39:10.067Z,11.47
2023-04-19T13:43:12.066Z,11.55
2023-04-19T13:47:14.065Z,11.68
2023-04-19T13:51:16.082Z,11.68
2023-04-19T13:55:18.324Z,11.59
2023-04-19T13:59:21.168Z,11.64
2023-04-19T14:03:24.084Z,11.71
2023-04-19T14:07:26.234Z,11.87
2023-04-19T14:11:28.457Z,11.77
2023-04-19T14:15:30.556Z,11.83
2023-04-19T14:19:32.564Z,11.96
2023-04-19T14:23:34.699Z,11.92
2023-04-19T14:27:37.108Z,11.73
2023-04-19T14:31:39.191Z,11.76
2023-04-19T14:35:41.968Z,11.69
2023-04-19T14:39:47.531Z,11.75
2023-04-19T14:43:49.760Z,12.04
2023-04-19T14:47:51.791Z,12.53
2023-04-19T14:51:54.031Z,12.20
2023-04-19T14:55:56.247Z,12.24
2023-04-19T14:59:58.493Z,12.40
2023-04-19T15:04:00.919Z,12.09
2023-04-19T15:08:03.316Z,11.91
2023-04-19T15:12:05.791Z,11.82
2023-04-19T15:16:09.045Z,11.94
2023-04-19T15:20:11.425Z,11.88
2023-04-19T15:24:13.476Z,11.75
2023-04-19T15:28:15.720Z,11.68
2023-04-19T15:32:17.810Z,11.70
2023-04-19T15:36:19.911Z,11.40
2023-04-19T15:40:24.388Z,11.34
2023-04-19T15:44:26.497Z,11.04
2023-04-19T15:48:28.629Z,10.87
2023-04-19T15:52:30.642Z,10.70
2023-04-19T15:56:32.685Z,10.71
2023-04-19T16:00:34.804Z,10.66
2023-04-19T16:04:37.249Z,10.67
2023-04-19T16:08:39.540Z,10.43
2023-04-19T16:12:42.475Z,10.28
2023-04-19T16:16:44.562Z,10.24
2023-04-19T16:20:46.688Z,10.23
2023-04-19T16:24:48.968Z,10.19
2023-04-19T16:28:51.313Z,10.14
2023-04-19T16:32:57.475Z,10.08
2023-04-19T16:36:59.652Z,10.00
2023-04-19T16:41:04.570Z,9.93
2023-04-19T16:45:08.165Z,9.84
2023-04-19T16:49:10.200Z,9.75
2023-04-19T16:53:12.585Z,9.65
2023-04-19T16:57:14.650Z,9.55
2023-04-19T17:01:16.796Z,9.45
2023-04-19T17:05:19.524Z,9.44
2023-04-19T17:09:21.633Z,9.45
2023-04-19T17:13:23.713Z,9.50
2023-04-19T17:17:25.843Z,9.52
2023-04-19T17:21:27.860Z,9.52
2023-04-19T17:25:30.053Z,9.54
2023-04-19T17:29:32.510Z,9.53
2023-04-19T17:33:34.617Z,9.50
2023-04-19T17:37:36.847Z,9.57
2023-04-19T17:41:39.175Z,9.57
2023-04-19T17:45:41.190Z,9.45
2023-04-19T17:49:45.126Z,9.45
2023-04-19T17:53:47.495Z,9.40
2023-04-19T17:57:49.488Z,9.33
2023-04-19T18:01:51.575Z,9.35
2023-04-19T18:05:53.609Z,9.28
2023-04-19T18:09:55.681Z,9.24
2023-04-19T18:13:57.665Z,9.24
2023-04-19T18:17:59.763Z,9.19
2023-04-19T18:22:01.815Z,9.09
2023-04-19T18:26:04.071Z,8.95
2023-04-19T18:30:07.297Z,8.74
2023-04-19T18:34:11.910Z,8.59
2023-04-19T18:38:14.522Z,8.48
2023-04-19T18:42:16.529Z,8.36
2023-04-19T18:46:18.720Z,8.25
2023-04-19T18:50:21.013Z,8.09
2023-04-19T18:54:24.571Z,7.93
2023-04-19T18:58:27.499Z,7.76
2023-04-19T19:02:29.821Z,7.52
2023-04-19T19:06:32.921Z,7.31
2023-04-19T19:10:58.814Z,7.13
2023-04-19T19:14:57.314Z,6.97
2023-04-19T19:18:59.367Z,6.88
2023-04-19T19:23:03.077Z,6.88
2023-04-19T19:27:05.343Z,6.85
2023-04-19T19:31:07.569Z,6.75
2023-04-19T19:35:09.764Z,6.53
2023-04-19T19:39:12.624Z,6.30
2023-04-19T19:43:14.716Z,6.10
2023-04-19T19:47:17.375Z,6.04
2023-04-19T19:51:48.023Z,5.83
2023-04-19T19:55:42.129Z,5.77
2023-04-19T19:59:51.565Z,5.72
2023-04-19T20:03:56.965Z,5.58
2023-04-19T20:08:11.621Z,5.50
2023-04-19T20:12:14.222Z,5.39
2023-04-19T20:16:18.744Z,5.39
2023-04-19T20:20:21.110Z,5.39
2023-04-19T20:24:23.770Z,5.44
2023-04-19T20:28:26.460Z,5.41
2023-04-19T20:32:28.586Z,5.45
2023-04-19T20:36:31.829Z,5.40
2023-04-19T20:40:33.994Z,5.29
2023-04-19T20:44:36.170Z,5.19
2023-04-19T20:48:38.192Z,5.10
2023-04-19T20:52:40.681Z,5.03
2023-04-19T20:56:42.724Z,5.01
2023-04-19T21:00:44.794Z,5.02
2023-04-19T21:04:46.839Z,5.04
2023-04-19T21:08:48.836Z,5.00
2023-04-19T21:12:51.072Z,4.88
2023-04-19T21:16:53.081Z,4.89
2023-04-19T21:20:56.200Z,4.80
2023-04-19T21:24:58.321Z,4.73
2023-04-19T21:29:00.402Z,4.41
2023-04-19T21:33:02.558Z,4.11
2023-04-19T21:37:04.587Z,3.99
2023-04-19T21:41:07.635Z,3.98
2023-04-19T21:45:10.134Z,4.02
2023-04-19T21:49:12.136Z,4.07
2023-04-19T21:53:14.172Z,3.99
2023-04-19T21:57:17.581Z,3.71
2023-04-19T22:01:19.674Z,3.66
2023-04-19T22:05:21.720Z,3.68
2023-04-19T22:09:23.955Z,3.70
2023-04-19T22:13:26.175Z,3.70
2023-04-19T22:17:29.285Z,3.70
2023-04-19T22:21:32.066Z,3.64
2023-04-19T22:25:34.097Z,3.64
2023-04-19T22:29:36.185Z,3.66
2023-04-19T22:33:38.206Z,3.62
2023-04-19T22:37:40.719Z,3.54
2023-04-19T22:41:42.748Z,3.37
2023-04-19T22:45:47.610Z,3.33
2023-04-19T22:49:49.706Z,3.34
2023-04-19T22:53:51.799Z,3.31
2023-04-19T22:57:53.888Z,3.13
2023-04-19T23:01:55.939Z,3.05
2023-04-19T23:05:58.258Z,3.02
2023-04-19T23:10:00.971Z,3.06
2023-04-19T23:14:04.421Z,3.13
2023-04-19T23:18:07.033Z,3.21
2023-04-19T23:22:09.616Z,3.03
2023-04-19T23:26:11.833Z,2.97
2023-04-19T23:30:14.042Z,2.86
2023-04-19T23:34:16.599Z,2.95
2023-04-19T23:38:19.183Z,3.00
2023-04-19T23:42:21.424Z,3.02
2023-04-19T23:46:23.489Z,2.99
2023-04-19T23:50:25.712Z,2.95
2023-04-19T23:54:27.953Z,3.04
2023-04-19T23:58:30.004Z,2.97
